Time,TemperatureF,DewpointF,PressureIn,WindDirection,WindDirectionDegrees,WindSpeedMPH,WindSpeedGustMPH,Humidity,HourlyPrecipIn,Conditions,Clouds,dailyrainin,SoftwareType,DateUTC
2013-04-27 00:01:00,55.0,52.0,30.11,WSW,242,0.0,0.0,91,0.00,,,0.00,,2013-04-27 07:01:00,
2013-04-27 00:11:00,55.0,52.0,30.11,WSW,242,0.0,0.0,91,0.00,,,0.00,,2013-04-27 07:11:00,
2013-04-27 00:21:00,56.0,52.0,30.11,WSW,241,0.0,0.0,87,0.00,,,0.00,,2013-04-27 07:21:00,
2013-04-27 00:31:00,55.0,51.0,30.11,WSW,242,0.0,0.0,87,0.00,,,0.00,,2013-04-27 07:31:00,
2013-04-27 00:41:00,55.0,51.0,30.11,WSW,242,0.0,0.0,87,0.00,,,0.00,,2013-04-27 07:41:00,
2013-04-27 00:52:00,55.0,52.0,30.11,WSW,242,0.0,0.0,91,0.00,,,0.00,,2013-04-27 07:52:00,
2013-04-27 01:01:00,55.0,52.0,30.11,WSW,241,0.0,0.0,90,0.00,,,0.00,,2013-04-27 08:01:00,
2013-04-27 01:11:00,55.0,52.0,30.11,WSW,241,0.0,0.0,90,0.00,,,0.00,,2013-04-27 08:11:00,
2013-04-27 01:21:00,54.0,51.0,30.11,WSW,241,0.0,1.0,89,0.00,,,0.00,,2013-04-27 08:21:00,
2013-04-27 01:33:00,54.0,50.0,30.11,WSW,242,0.0,0.0,87,0.00,,,0.00,,2013-04-27 08:33:00,
2013-04-27 01:41:00,54.0,50.0,30.11,WSW,242,0.0,0.0,87,0.00,,,0.00,,2013-04-27 08:41:00,
2013-04-27 01:52:00,54.0,51.0,30.11,WSW,242,0.0,0.0,89,0.00,,,0.00,,2013-04-27 08:52:00,
2013-04-27 02:01:00,53.0,50.0,30.11,WSW,242,0.0,0.0,90,0.00,,,0.00,,2013-04-27 09:01:00,
2013-04-27 02:11:00,53.0,50.0,30.11,WSW,242,0.0,0.0,90,0.00,,,0.00,,2013-04-27 09:11:00,
2013-04-27 02:21:00,53.0,50.0,30.11,WSW,241,0.0,0.0,89,0.00,,,0.00,,2013-04-27 09:21:00,
2013-04-27 02:33:00,53.0,50.0,30.11,WSW,242,0.0,0.0,90,0.00,,,0.00,,2013-04-27 09:33:00,
2013-04-27 02:42:00,53.0,50.0,30.11,WSW,242,0.0,0.0,90,0.00,,,0.00,,2013-04-27 09:42:00,
2013-04-27 02:53:00,52.0,50.0,30.11,WSW,242,0.0,0.0,92,0.00,,,0.00,,2013-04-27 09:53:00,
2013-04-27 03:02:00,52.0,50.0,30.11,WSW,242,0.0,0.0,92,0.00,,,0.00,,2013-04-27 10:02:00,
2013-04-27 03:11:00,52.0,50.0,30.11,WSW,242,0.0,0.0,92,0.00,,,0.00,,2013-04-27 10:11:00,
2013-04-27 03:22:00,52.0,51.0,30.11,WSW,241,0.0,0.0,95,0.00,,,0.00,,2013-04-27 10:22:00,
2013-04-27 03:32:00,52.0,50.0,30.11,WSW,242,0.0,0.0,94,0.00,,,0.00,,2013-04-27 10:32:00,
2013-04-27 03:42:00,52.0,50.0,30.11,WSW,242,0.0,0.0,94,0.00,,,0.00,,2013-04-27 10:42:00,
2013-04-27 03:52:00,53.0,51.0,30.10,WSW,255,2.0,4.0,93,0.00,,,0.00,,2013-04-27 10:52:00,
2013-04-27 04:02:00,53.0,51.0,30.10,WSW,254,0.0,1.0,92,0.00,,,0.00,,2013-04-27 11:02:00,
2013-04-27 04:11:00,51.0,49.0,30.10,WSW,254,0.0,0.0,93,0.00,,,0.00,,2013-04-27 11:11:00,
2013-04-27 04:21:00,51.0,49.0,30.10,WSW,254,0.0,0.0,93,0.00,,,0.00,,2013-04-27 11:21:00,
2013-04-27 04:31:00,52.0,50.0,30.10,WSW,254,0.0,3.0,93,0.00,,,0.00,,2013-04-27 11:31:00,
2013-04-27 04:41:00,52.0,50.0,30.10,WSW,254,0.0,3.0,93,0.00,,,0.00,,2013-04-27 11:41:00,
2013-04-27 04:52:00,52.0,50.0,30.09,WSW,254,0.0,0.0,92,0.00,,,0.00,,2013-04-27 11:52:00,
2013-04-27 05:01:00,53.0,51.0,30.09,West,263,0.0,4.0,92,0.00,,,0.00,,2013-04-27 12:01:00,
2013-04-27 05:11:00,53.0,51.0,30.09,West,263,0.0,4.0,92,0.00,,,0.00,,2013-04-27 12:11:00,
2013-04-27 05:21:00,52.0,49.0,30.09,West,263,0.0,0.0,90,0.00,,,0.00,,2013-04-27 12:21:00,
2013-04-27 05:32:00,51.0,49.0,30.09,West,263,0.0,0.0,93,0.00,,,0.00,,2013-04-27 12:32:00,
2013-04-27 05:42:00,51.0,49.0,30.09,West,263,0.0,0.0,93,0.00,,,0.00,,2013-04-27 12:42:00,
2013-04-27 05:52:00,51.0,49.0,30.09,West,263,0.0,0.0,94,0.00,,,0.00,,2013-04-27 12:52:00,
2013-04-27 06:01:00,51.0,49.0,30.09,West,263,0.0,0.0,93,0.00,,,0.00,,2013-04-27 13:01:00,
2013-04-27 06:11:00,51.0,49.0,30.09,West,263,0.0,0.0,93,0.00,,,0.00,,2013-04-27 13:11:00,
2013-04-27 06:21:00,50.0,48.0,30.09,West,263,0.0,0.0,93,0.00,,,0.00,,2013-04-27 13:21:00,
2013-04-27 06:32:00,51.0,48.0,30.10,West,263,0.0,0.0,91,0.00,,,0.00,,2013-04-27 13:32:00,
2013-04-27 06:41:00,51.0,48.0,30.10,West,263,0.0,0.0,91,0.00,,,0.00,,2013-04-27 13:41:00,
2013-04-27 06:52:00,51.0,48.0,30.10,West,263,0.0,0.0,91,0.00,,,0.00,,2013-04-27 13:52:00,
2013-04-27 07:02:00,51.0,49.0,30.10,West,263,0.0,0.0,93,0.00,,,0.00,,2013-04-27 14:02:00,
2013-04-27 07:11:00,51.0,49.0,30.10,West,263,0.0,0.0,93,0.00,,,0.00,,2013-04-27 14:11:00,
2013-04-27 07:21:00,54.0,50.0,30.11,West,263,0.0,0.0,87,0.00,,,0.00,,2013-04-27 14:21:00,
2013-04-27 07:31:00,53.0,50.0,30.11,West,263,0.0,0.0,88,0.00,,,0.00,,2013-04-27 14:31:00,
2013-04-27 07:52:00,56.0,51.0,30.11,West,263,0.0,0.0,84,0.00,,,0.00,,2013-04-27 14:52:00,
2013-04-27 08:01:00,57.0,51.0,30.11,West,263,0.0,0.0,81,0.00,,,0.00,,2013-04-27 15:01:00,
2013-04-27 08:21:00,59.0,52.0,30.11,West,263,0.0,0.0,78,0.00,,,0.00,,2013-04-27 15:21:00,
2013-04-27 08:33:00,60.0,52.0,30.11,West,263,0.0,0.0,76,0.00,,,0.00,,2013-04-27 15:33:00,
2013-04-27 08:53:00,63.0,53.0,30.11,West,263,0.0,0.0,71,0.00,,,0.00,,2013-04-27 15:53:00,
2013-04-27 09:02:00,62.0,52.0,30.11,West,263,0.0,0.0,69,0.00,,,0.00,,2013-04-27 16:02:00,
2013-04-27 09:22:00,65.0,53.0,30.11,West,261,0.0,0.0,66,0.00,,,0.00,,2013-04-27 16:22:00,
2013-04-27 09:32:00,67.0,53.0,30.11,West,261,0.0,0.0,61,0.00,,,0.00,,2013-04-27 16:32:00,
2013-04-27 10:01:00,70.0,54.0,30.11,West,260,0.0,0.0,57,0.00,,,0.00,,2013-04-27 17:01:00,
2013-04-27 10:22:00,72.0,55.0,30.11,WSW,248,0.0,0.0,55,0.00,,,0.00,,2013-04-27 17:22:00,
2013-04-27 10:31:00,73.0,55.0,30.11,WSW,241,0.0,1.0,53,0.00,,,0.00,,2013-04-27 17:31:00,
2013-04-27 10:42:00,73.0,55.0,30.11,WSW,241,0.0,1.0,53,0.00,,,0.00,,2013-04-27 17:42:00,
2013-04-27 10:53:00,75.0,55.0,30.10,West,263,0.0,1.0,50,0.00,,,0.00,,2013-04-27 17:53:00,
2013-04-27 11:31:00,75.0,55.0,30.10,West,263,0.0,1.0,50,0.00,,,0.00,,2013-04-27 18:31:00,